Time;durP1;ratioP1;P1;durP2;ratioP2;P2;SDS_P1;SDS_P2;PMS_P1;PMS_P2;Temp;Humidity;BMP_temperature;BMP_pressure;BME280_temperature;BME280_humidity;BME280_pressure;Samples;Min_cycle;Max_cycle;Signal;HPM_P1;HPM_P2
2022/06/04 00:01:05;;;;;;;3.35;1.67;;;;;;;23.93;65.30;99723.38;4473576;32;34113;-82
2022/06/04 00:03:37;;;;;;;3.33;1.50;;;;;;;23.91;65.17;99699.62;4468096;32;33091;-82
2022/06/04 00:06:06;;;;;;;5.53;2.37;;;;;;;24.12;64.17;99697.31;4465179;32;34665;-82
2022/06/04 00:08:35;;;;;;;4.20;1.70;;;;;;;24.02;65.12;99697.09;4462678;32;33466;-81
2022/06/04 00:16:37;;;;;;;4.37;1.73;;;;;;;24.13;63.98;99679.59;4462826;32;33956;-82
2022/06/04 00:19:06;;;;;;;2.90;1.70;;;;;;;23.99;64.53;99676.13;4468215;32;34336;-82
2022/06/04 00:21:35;;;;;;;3.78;1.90;;;;;;;23.84;65.69;99664.75;4462555;32;34179;-82
2022/06/04 00:24:05;;;;;;;3.97;2.20;;;;;;;23.87;65.11;99658.41;4462376;32;33824;-82
2022/06/04 00:26:35;;;;;;;2.80;1.83;;;;;;;23.48;68.31;99659.28;4468010;32;34855;-82
2022/06/04 00:29:07;;;;;;;4.47;2.10;;;;;;;23.91;65.64;99659.88;4478171;32;33078;-82
2022/06/04 00:31:36;;;;;;;2.80;1.60;;;;;;;23.81;65.93;99675.56;4483316;32;34311;-81
2022/06/04 00:34:06;;;;;;;4.72;2.22;;;;;;;23.66;67.03;99678.41;4480114;32;34346;-82
2022/06/04 00:36:34;;;;;;;4.43;1.95;;;;;;;23.54;68.19;99677.41;4479357;32;33453;-82
2022/06/04 00:39:04;;;;;;;4.37;2.25;;;;;;;23.54;68.66;99678.25;4479990;32;33687;-82
2022/06/04 00:41:41;;;;;;;4.65;2.30;;;;;;;23.60;68.25;99675.19;4463635;32;33749;-82
2022/06/04 00:44:47;;;;;;;4.80;1.75;;;;;;;23.71;68.12;99677.12;4472227;32;34600;-81
2022/06/04 00:47:23;;;;;;;3.90;2.10;;;;;;;23.68;68.71;99671.16;4463518;32;34117;-82
2022/06/04 00:49:52;;;;;;;4.07;1.92;;;;;;;23.51;69.74;99672.31;4469751;32;34483;-82
2022/06/04 00:52:21;;;;;;;4.20;2.17;;;;;;;23.66;68.82;99673.09;4466839;32;33383;-81
2022/06/04 00:54:52;;;;;;;3.85;2.08;;;;;;;23.47;69.64;99657.59;4479409;32;33471;-81
2022/06/04 00:57:48;;;;;;;3.53;2.00;;;;;;;23.20;70.95;99654.03;4479955;32;34781;-82
2022/06/04 01:00:20;;;;;;;3.15;1.70;;;;;;;22.87;72.41;99643.81;4479882;32;33583;-81
2022/06/04 01:03:14;;;;;;;5.15;2.80;;;;;;;23.06;71.67;99637.38;4473681;32;33442;-82
2022/06/04 01:06:00;;;;;;;3.33;2.00;;;;;;;23.19;71.12;99635.59;4464059;32;33965;-81
2022/06/04 01:08:49;;;;;;;7.82;2.30;;;;;;;23.10;71.58;99623.84;4467195;32;33637;-81
2022/06/04 01:11:25;;;;;;;3.58;2.00;;;;;;;23.23;69.73;99615.09;4469444;32;34114;-81
2022/06/04 01:14:05;;;;;;;4.32;2.72;;;;;;;22.87;72.41;99611.25;4464252;32;33147;-81
2022/06/04 01:16:38;;;;;;;5.47;2.62;;;;;;;22.77;73.20;99606.53;4464313;32;34453;-81
2022/06/04 01:19:36;;;;;;;4.10;2.42;;;;;;;22.94;72.28;99597.50;4464124;32;33987;-81
2022/06/04 01:22:18;;;;;;;3.28;2.05;;;;;;;23.07;72.12;99594.09;4464088;32;34193;-81
2022/06/04 01:25:01;;;;;;;4.85;1.95;;;;;;;23.31;70.28;99594.22;4465184;32;33230;-81
2022/06/04 01:27:33;;;;;;;3.37;2.00;;;;;;;23.20;71.03;99587.88;4464441;32;34479;-81
2022/06/04 01:30:08;;;;;;;4.87;1.75;;;;;;;23.14;71.39;99574.19;4463825;32;34021;-82
2022/06/04 01:32:40;;;;;;;4.18;2.10;;;;;;;23.27;70.79;99587.44;4473038;32;33810;-81
2022/06/04 01:35:14;;;;;;;4.65;2.37;;;;;;;23.27;70.25;99598.91;4479645;32;33398;-82
2022/06/04 01:37:46;;;;;;;3.97;2.25;;;;;;;23.53;69.13;99606.88;4479669;32;34682;-81
2022/06/04 01:43:07;;;;;;;3.92;1.90;;;;;;;23.33;70.25;99609.06;4472925;32;33978;-82
2022/06/04 01:45:37;;;;;;;6.97;2.45;;;;;;;23.52;69.62;99613.13;4462507;32;32996;-81
2022/06/04 01:48:08;;;;;;;4.05;2.20;;;;;;;23.44;69.64;99621.59;4469394;32;33867;-81
2022/06/04 01:50:40;;;;;;;3.97;1.92;;;;;;;23.60;68.35;99624.88;4463781;32;33744;-81
2022/06/04 01:53:10;;;;;;;5.72;2.58;;;;;;;23.39;69.03;99632.50;4470211;32;33843;-81
2022/06/04 01:55:43;;;;;;;3.65;1.95;;;;;;;23.54;68.37;99643.00;4475454;32;32379;-81
2022/06/04 01:58:15;;;;;;;4.57;2.03;;;;;;;23.47;69.16;99639.06;4479914;32;33462;-81
2022/06/04 02:00:49;;;;;;;4.37;1.85;;;;;;;23.42;69.40;99626.97;4479465;32;34443;-81
2022/06/04 02:03:20;;;;;;;3.45;2.10;;;;;;;23.45;69.34;99622.44;4484953;32;34431;-81
2022/06/04 02:05:52;;;;;;;4.00;2.28;;;;;;;23.17;71.32;99619.84;4479011;32;33912;-81
2022/06/04 02:08:24;;;;;;;3.55;1.98;;;;;;;23.32;71.11;99614.47;4479447;32;34495;-81
2022/06/04 02:10:58;;;;;;;5.22;2.08;;;;;;;23.39;70.60;99613.97;4479599;32;34011;-81
2022/06/04 02:13:29;;;;;;;4.43;2.25;;;;;;;23.30;70.80;99609.28;4482206;32;33820;-81
2022/06/04 02:16:01;;;;;;;4.47;2.25;;;;;;;23.19;71.47;99607.34;4479587;32;32359;-82
2022/06/04 02:18:30;;;;;;;5.40;2.55;;;;;;;23.68;68.68;99603.19;4485379;32;33445;-81
2022/06/04 02:20:59;;;;;;;4.37;2.42;;;;;;;23.69;68.75;99602.22;4479291;32;33240;-81
2022/06/04 02:23:29;;;;;;;3.00;1.75;;;;;;;23.38;69.92;99588.41;4479453;32;34713;-81
2022/06/04 02:25:59;;;;;;;3.87;2.10;;;;;;;23.59;69.02;99601.16;4469736;32;33727;-82
2022/06/04 02:28:29;;;;;;;4.65;2.00;;;;;;;23.46;69.60;99597.63;4463850;32;33771;-82
2022/06/04 02:31:04;;;;;;;4.78;2.03;;;;;;;23.57;68.04;99603.91;4469167;32;33446;-81
2022/06/04 02:33:41;;;;;;;4.43;2.42;;;;;;;23.56;68.24;99601.38;4464659;32;34430;-81
2022/06/04 02:36:15;;;;;;;4.90;2.20;;;;;;;23.31;69.11;99605.66;4473532;32;33422;-81
2022/06/04 02:38:47;;;;;;;4.72;1.98;;;;;;;22.87;71.14;99606.78;4479208;32;34605;-81
2022/06/04 02:41:20;;;;;;;4.95;2.30;;;;;;;22.76;71.51;99596.94;4477685;32;34780;-81
2022/06/04 02:43:54;;;;;;;4.37;1.95;;;;;;;22.72;71.72;99597.22;4477526;32;33208;-82
2022/06/04 02:46:29;;;;;;;5.50;2.75;;;;;;;22.73;72.10;99607.69;4484813;32;33381;-82
2022/06/04 02:49:02;;;;;;;4.05;2.20;;;;;;;22.76;72.67;99598.69;4479246;32;34613;-82
2022/06/04 02:51:34;;;;;;;4.93;2.90;;;;;;;22.98;71.94;99604.34;4477436;32;32760;-82
2022/06/04 02:54:15;;;;;;;3.67;2.00;;;;;;;23.00;71.47;99597.16;4463692;32;33993;-82
2022/06/04 02:56:44;;;;;;;4.62;2.55;;;;;;;22.99;71.65;99605.19;4462401;32;33410;-82
2022/06/04 02:59:17;;;;;;;4.65;2.17;;;;;;;22.81;72.70;99596.63;4463597;32;34121;-82
2022/06/04 03:01:47;;;;;;;5.85;2.95;;;;;;;22.87;72.56;99585.62;4472449;32;34009;-82
2022/06/04 03:04:16;;;;;;;4.35;2.22;;;;;;;22.80;72.62;99579.88;4478726;32;33102;-82
2022/06/04 03:06:45;;;;;;;4.47;2.03;;;;;;;22.65;73.99;99574.78;4478920;32;33262;-82
2022/06/04 03:09:17;;;;;;;3.35;1.90;;;;;;;22.49;75.04;99574.91;4476873;32;33833;-82
2022/06/04 03:11:47;;;;;;;7.12;2.83;;;;;;;22.44;74.95;99569.06;4463463;32;34083;-82
2022/06/04 03:14:19;;;;;;;4.53;2.37;;;;;;;22.31;75.84;99587.50;4464573;32;34471;-82
2022/06/04 03:16:49;;;;;;;5.28;2.37;;;;;;;22.55;74.92;99596.50;4468829;32;33525;-82
2022/06/04 03:19:18;;;;;;;4.43;2.17;;;;;;;22.74;74.01;99595.34;4463347;32;33385;-81
2022/06/04 03:21:46;;;;;;;3.08;2.00;;;;;;;22.74;73.99;99598.81;4466387;32;33522;-81
2022/06/04 03:24:16;;;;;;;7.32;2.58;;;;;;;22.85;73.24;99594.63;4478832;32;34070;-81
2022/06/04 03:26:44;;;;;;;6.55;3.22;;;;;;;23.06;72.41;99595.03;4478522;32;33328;-81
2022/06/04 03:29:13;;;;;;;5.82;3.10;;;;;;;22.90;72.84;99596.00;4484207;32;33910;-81
2022/06/04 03:31:46;;;;;;;3.90;2.47;;;;;;;22.40;75.09;99599.28;4475536;32;34423;-82
2022/06/04 03:34:15;;;;;;;6.20;2.97;;;;;;;22.66;73.72;99594.97;4463135;32;34364;-81
2022/06/04 03:36:44;;;;;;;5.07;3.30;;;;;;;22.79;72.98;99590.59;4463266;32;34148;-81
2022/06/04 03:39:13;;;;;;;5.30;3.00;;;;;;;22.68;73.22;99582.50;4462936;32;34018;-81
2022/06/04 03:41:42;;;;;;;5.65;3.12;;;;;;;22.41;74.84;99604.47;4470949;32;34051;-82
2022/06/04 03:44:11;;;;;;;7.00;3.30;;;;;;;22.40;75.19;99594.88;4478591;32;33809;-82
2022/06/04 03:46:40;;;;;;;8.65;3.28;;;;;;;22.51;74.69;99580.94;4478750;32;33128;-82
2022/06/04 03:49:10;;;;;;;6.43;3.25;;;;;;;22.35;75.70;99579.28;4478657;32;34628;-82
2022/06/04 03:51:39;;;;;;;5.28;2.53;;;;;;;22.42;74.82;99576.25;4478010;31;33193;-82
2022/06/04 03:54:08;;;;;;;7.10;3.05;;;;;;;22.40;74.94;99583.41;4480309;32;33870;-82
2022/06/04 03:56:37;;;;;;;6.90;3.05;;;;;;;22.36;75.37;99582.78;4484112;32;33093;-82
2022/06/04 03:59:06;;;;;;;6.43;3.22;;;;;;;22.19;76.43;99582.97;4478439;32;34639;-82
2022/06/04 04:01:35;;;;;;;6.28;3.00;;;;;;;22.05;76.87;99587.31;4478036;32;33961;-83
2022/06/04 04:04:04;;;;;;;8.05;4.70;;;;;;;21.96;77.49;99587.88;4478335;32;33794;-82
2022/06/04 04:06:34;;;;;;;6.22;3.17;;;;;;;22.01;77.46;99579.66;4478549;32;33841;-82
2022/06/04 04:09:09;;;;;;;6.22;3.37;;;;;;;22.06;77.50;99581.09;4485069;32;32827;-82
2022/06/04 04:11:38;;;;;;;5.57;3.15;;;;;;;22.02;78.12;99591.94;4480344;32;34007;-82
2022/06/04 04:14:08;;;;;;;6.25;3.22;;;;;;;22.05;77.49;99589.09;4480148;32;33644;-81
2022/06/04 04:16:36;;;;;;;4.90;2.62;;;;;;;22.04;77.57;99585.62;4480230;32;33162;-82
2022/06/04 04:19:05;;;;;;;6.32;3.30;;;;;;;21.98;77.97;99596.56;4480193;32;33400;-82
2022/06/04 04:21:41;;;;;;;5.85;3.10;;;;;;;21.89;78.34;99598.00;4485212;32;33965;-82
2022/06/04 04:24:10;;;;;;;7.72;3.17;;;;;;;21.79;78.95;99590.72;4484589;32;34003;-82
2022/06/04 04:26:40;;;;;;;5.28;3.03;;;;;;;21.61;80.01;99608.53;4480101;32;33397;-82
2022/06/04 04:29:09;;;;;;;6.15;3.53;;;;;;;21.51;80.50;99598.53;4480042;32;33748;-82
2022/06/04 04:31:38;;;;;;;4.85;3.08;;;;;;;21.39;81.14;99627.41;4479394;32;33882;-83
2022/06/04 04:34:08;;;;;;;5.12;2.47;;;;;;;21.97;76.49;99673.28;4479760;32;34456;-84
2022/06/04 04:36:36;;;;;;;7.05;3.58;;;;;;;21.93;76.63;99699.84;4485827;32;33325;-84
2022/06/04 04:39:06;;;;;;;4.90;2.75;;;;;;;21.85;77.85;99678.34;4480689;32;33274;-83
2022/06/04 04:41:36;;;;;;;5.75;2.83;;;;;;;21.81;77.75;99660.97;4480281;32;33165;-82
2022/06/04 04:44:05;;;;;;;3.87;2.47;;;;;;;21.88;78.40;99650.91;4479794;32;33899;-82
2022/06/04 04:46:34;;;;;;;7.40;3.80;;;;;;;21.83;78.74;99645.06;4479892;32;34170;-83
2022/06/04 04:49:04;;;;;;;4.15;2.28;;;;;;;21.57;79.81;99643.97;4485808;32;34294;-82
2022/06/04 04:51:34;;;;;;;5.10;2.97;;;;;;;21.86;78.13;99661.53;4479843;32;34691;-82
2022/06/04 04:54:03;;;;;;;8.00;3.53;;;;;;;21.79;78.72;99659.38;4464568;32;32908;-82
2022/06/04 04:56:34;;;;;;;5.68;3.75;;;;;;;21.89;78.15;99652.59;4464429;32;33273;-82
2022/06/04 04:59:03;;;;;;;5.53;2.30;;;;;;;21.94;78.03;99647.91;4464498;32;32997;-82
2022/06/04 05:01:33;;;;;;;5.40;2.53;;;;;;;21.81;78.47;99641.66;4469567;32;34116;-82
2022/06/04 05:04:02;;;;;;;4.60;2.42;;;;;;;22.00;76.38;99642.22;4468605;32;34076;-82
2022/06/04 05:06:32;;;;;;;3.85;2.10;;;;;;;21.92;77.08;99645.34;4464166;32;33461;-82
2022/06/04 05:09:01;;;;;;;6.55;2.55;;;;;;;21.87;77.39;99651.84;4463892;32;35047;-82
2022/06/04 05:11:33;;;;;;;2.92;1.90;;;;;;;21.85;77.74;99635.25;4464429;32;33896;-82
2022/06/04 05:14:03;;;;;;;4.07;2.05;;;;;;;22.08;76.27;99634.66;4464231;32;33852;-82
2022/06/04 05:16:34;;;;;;;4.28;2.12;;;;;;;21.99;76.64;99622.06;4469808;32;33771;-82
2022/06/04 05:19:05;;;;;;;7.25;3.28;;;;;;;22.17;75.71;99623.53;4463935;32;34041;-82
2022/06/04 05:21:41;;;;;;;5.25;2.47;;;;;;;22.09;76.30;99627.63;4465072;32;33958;-82
2022/06/04 05:24:15;;;;;;;5.22;2.33;;;;;;;22.10;75.74;99646.00;4478714;32;33891;-82
2022/06/04 05:26:45;;;;;;;4.25;2.58;;;;;;;21.91;76.37;99648.91;4479700;32;33454;-82
2022/06/04 05:29:15;;;;;;;4.07;2.22;;;;;;;21.95;75.74;99650.44;4480337;32;34665;-82
2022/06/04 05:31:45;;;;;;;6.87;2.83;;;;;;;21.92;76.74;99649.78;4485601;32;33173;-82
2022/06/04 05:34:15;;;;;;;4.18;1.98;;;;;;;21.80;77.64;99654.00;4464397;32;33031;-82
2022/06/04 05:36:44;;;;;;;6.07;2.33;;;;;;;21.88;77.20;99642.97;4464099;32;33392;-81
2022/06/04 05:39:14;;;;;;;5.25;2.47;;;;;;;21.71;77.59;99634.28;4464796;32;34867;-82
2022/06/04 05:41:44;;;;;;;5.18;2.37;;;;;;;21.88;76.35;99640.34;4463935;32;33773;-82
2022/06/04 05:44:13;;;;;;;6.15;2.45;;;;;;;21.84;76.18;99628.25;4483699;32;33499;-82
2022/06/04 05:46:44;;;;;;;3.28;1.87;;;;;;;21.85;76.80;99638.72;4479642;32;33938;-82
2022/06/04 05:49:19;;;;;;;3.17;1.83;;;;;;;21.96;76.40;99635.41;4479519;32;33916;-82
2022/06/04 05:51:50;;;;;;;5.57;2.27;;;;;;;21.91;76.01;99634.84;4479532;32;33873;-82
2022/06/04 05:54:19;;;;;;;4.90;2.97;;;;;;;21.93;76.83;99632.97;4464148;32;33646;-82
2022/06/04 05:56:50;;;;;;;3.28;1.70;;;;;;;21.84;76.05;99638.81;4466584;32;34039;-79
2022/06/04 05:59:23;;;;;;;4.32;2.20;;;;;;;21.86;75.78;99642.22;4469172;32;34573;-81
2022/06/04 06:01:53;;;;;;;2.78;2.08;;;;;;;21.86;75.66;99636.94;4463645;32;33611;-81
2022/06/04 06:04:25;;;;;;;4.72;1.90;;;;;;;21.87;75.42;99636.00;4478835;32;32739;-81
2022/06/04 06:06:58;;;;;;;5.43;2.20;;;;;;;21.77;75.88;99637.47;4479409;32;34101;-81
2022/06/04 06:09:28;;;;;;;4.10;2.03;;;;;;;21.79;76.02;99628.53;4479277;32;33453;-81
2022/06/04 06:11:57;;;;;;;2.62;1.48;;;;;;;21.87;75.24;99628.94;4485049;32;34652;-81
2022/06/04 06:14:26;;;;;;;6.10;2.60;;;;;;;21.77;76.32;99616.34;4479046;32;33934;-81
2022/06/04 06:16:56;;;;;;;2.50;1.60;;;;;;;21.62;76.73;99626.91;4479445;32;33288;-83
2022/06/04 06:19:25;;;;;;;2.93;2.17;;;;;;;21.81;76.11;99631.09;4479265;32;34342;-84
2022/06/04 06:25:37;;;;;;;5.28;2.10;;;;;;;21.76;75.74;99625.25;4464038;32;34543;-83
2022/06/04 06:28:07;;;;;;;3.00;1.58;;;;;;;21.80;75.52;99635.53;4463486;32;33995;-82
2022/06/04 06:30:36;;;;;;;4.50;2.20;;;;;;;21.42;77.81;99624.62;4464120;32;33472;-82
2022/06/04 06:33:06;;;;;;;2.65;1.37;;;;;;;21.57;77.02;99615.78;4472495;32;33948;-82
2022/06/04 06:35:35;;;;;;;3.40;1.73;;;;;;;21.73;76.15;99613.91;4479319;32;33194;-82
2022/06/04 06:38:04;;;;;;;5.72;2.00;;;;;;;21.74;75.98;99620.03;4479300;32;33287;-82
2022/06/04 06:40:37;;;;;;;3.87;2.15;;;;;;;21.82;75.63;99623.09;4479111;32;32879;-82
2022/06/04 06:43:06;;;;;;;3.08;1.75;;;;;;;21.62;76.79;99621.63;4478519;32;34145;-82
2022/06/04 06:45:35;;;;;;;4.22;1.45;;;;;;;21.68;76.57;99629.19;4484688;32;33785;-82
2022/06/04 06:48:06;;;;;;;3.97;2.12;;;;;;;21.69;76.18;99630.03;4479319;32;33364;-82
2022/06/04 06:50:35;;;;;;;4.12;2.03;;;;;;;21.70;75.90;99629.94;4479376;32;34595;-82
2022/06/04 06:53:04;;;;;;;4.03;1.92;;;;;;;21.77;75.60;99626.91;4478486;31;34166;-82
2022/06/04 06:55:33;;;;;;;3.75;1.50;;;;;;;21.82;75.46;99624.84;4478971;32;33939;-82
2022/06/04 06:58:09;;;;;;;3.25;1.42;;;;;;;21.82;75.82;99624.84;4480782;32;32784;-82
2022/06/04 07:00:38;;;;;;;3.60;1.73;;;;;;;21.87;75.85;99625.44;4484633;32;34189;-82
2022/06/04 07:03:08;;;;;;;6.15;2.15;;;;;;;21.76;76.06;99619.97;4478409;32;33884;-82
2022/06/04 07:05:37;;;;;;;3.37;1.80;;;;;;;21.91;76.17;99619.00;4478687;32;33529;-82
2022/06/04 07:08:07;;;;;;;4.95;1.73;;;;;;;21.91;76.28;99611.94;4479124;32;33235;-82
2022/06/04 07:10:38;;;;;;;4.30;1.95;;;;;;;22.02;76.18;99613.94;4479208;32;34739;-82
2022/06/04 07:13:07;;;;;;;4.62;2.15;;;;;;;22.03;75.90;99606.84;4482478;32;34038;-81
2022/06/04 07:15:36;;;;;;;5.90;2.30;;;;;;;22.15;75.85;99604.28;4472002;32;33952;-82
2022/06/04 07:18:05;;;;;;;4.30;1.77;;;;;;;22.28;75.62;99607.06;4476681;32;34118;-82
2022/06/04 07:20:42;;;;;;;4.50;1.62;;;;;;;22.39;75.81;99605.53;4477765;32;34498;-82
2022/06/04 07:23:11;;;;;;;5.37;1.95;;;;;;;22.52;76.18;99607.28;4475736;32;35689;-82
2022/06/04 07:25:44;;;;;;;3.83;1.85;;;;;;;22.58;75.91;99603.41;4483960;32;34398;-82
2022/06/04 07:28:15;;;;;;;4.87;2.40;;;;;;;22.69;75.64;99605.34;4483829;32;33125;-82
2022/06/04 07:30:44;;;;;;;4.30;1.95;;;;;;;22.78;75.75;99596.81;4478362;32;33893;-82
2022/06/04 07:33:13;;;;;;;5.55;2.12;;;;;;;22.96;75.18;99594.78;4475296;32;33918;-82
2022/06/04 07:35:48;;;;;;;3.37;1.73;;;;;;;23.14;74.86;99608.59;4478329;32;33633;-82
2022/06/04 07:38:17;;;;;;;3.95;2.00;;;;;;;23.25;74.60;99606.09;4476241;32;33365;-82
2022/06/04 07:40:47;;;;;;;3.92;1.50;;;;;;;23.42;73.21;99608.44;4483583;32;33950;-82
2022/06/04 07:43:16;;;;;;;3.45;1.83;;;;;;;23.49;73.10;99608.88;4475588;32;34794;-83
2022/06/04 07:45:45;;;;;;;4.00;1.75;;;;;;;23.39;73.41;99613.97;4477904;32;33858;-82
2022/06/04 07:48:14;;;;;;;4.60;2.03;;;;;;;23.25;72.83;99614.03;4478351;32;33033;-82
2022/06/04 07:50:43;;;;;;;2.67;1.73;;;;;;;23.40;72.74;99613.00;4477989;32;33918;-82
2022/06/04 07:53:13;;;;;;;3.00;1.62;;;;;;;23.42;72.78;99619.03;4483460;32;34780;-82
2022/06/04 07:55:43;;;;;;;4.57;2.57;;;;;;;23.57;72.13;99611.00;4475916;32;35468;-82
2022/06/04 07:58:12;;;;;;;3.20;1.60;;;;;;;23.57;71.90;99611.84;4477041;32;32491;-82
2022/06/04 08:00:41;;;;;;;3.62;1.62;;;;;;;23.73;71.78;99608.16;4476514;32;34199;-83
2022/06/04 08:03:12;;;;;;;3.90;1.65;;;;;;;23.91;70.59;99598.94;4474722;32;102891;-83
2022/06/04 08:05:41;;;;;;;3.53;1.75;;;;;;;24.02;70.18;99603.50;4478316;32;33551;-83
2022/06/04 08:08:10;;;;;;;4.18;2.08;;;;;;;23.64;72.53;99593.75;4483877;32;33892;-83
2022/06/04 08:10:41;;;;;;;3.28;1.60;;;;;;;24.00;71.55;99594.81;4479227;32;33386;-83
2022/06/04 08:13:10;;;;;;;3.05;1.77;;;;;;;24.31;70.48;99605.88;4478369;32;33924;-83
2022/06/04 08:15:39;;;;;;;3.53;1.55;;;;;;;24.33;70.59;99603.97;4477846;32;34370;-83
2022/06/04 08:18:08;;;;;;;3.47;1.67;;;;;;;24.41;69.45;99599.81;4477998;32;33374;-83
2022/06/04 08:20:41;;;;;;;3.37;1.75;;;;;;;24.60;68.54;99596.72;4483846;32;33973;-83
2022/06/04 08:23:11;;;;;;;4.35;1.85;;;;;;;24.71;68.67;99595.91;4476361;32;34666;-83
2022/06/04 08:25:42;;;;;;;4.03;1.62;;;;;;;24.78;68.38;99598.97;4476845;32;33761;-83
2022/06/04 08:28:11;;;;;;;2.75;1.70;;;;;;;24.90;67.84;99588.28;4478626;32;33617;-83
2022/06/04 08:30:40;;;;;;;4.07;2.08;;;;;;;25.11;64.19;99596.47;4474713;32;33235;-83
2022/06/04 08:33:09;;;;;;;4.32;2.03;;;;;;;24.86;65.52;99594.81;4481715;32;33765;-83
2022/06/04 08:35:39;;;;;;;3.58;1.80;;;;;;;24.83;67.16;99602.13;4481830;32;33584;-83
2022/06/04 08:38:08;;;;;;;3.08;1.67;;;;;;;24.83;68.16;99602.97;4475572;31;33329;-83
2022/06/04 08:40:39;;;;;;;2.80;1.60;;;;;;;25.00;67.99;99607.03;4477965;32;33862;-82
2022/06/04 08:43:15;;;;;;;4.32;1.75;;;;;;;25.09;67.57;99598.38;4477685;32;33896;-83
2022/06/04 08:45:44;;;;;;;3.60;1.92;;;;;;;25.05;68.21;99593.41;4478934;32;33698;-83
2022/06/04 08:48:17;;;;;;;2.87;1.70;;;;;;;25.17;67.96;99597.84;4479716;32;34204;-82
2022/06/04 08:50:50;;;;;;;5.72;1.73;;;;;;;25.19;67.69;99598.56;4477168;32;34854;-83
2022/06/04 08:53:22;;;;;;;3.03;1.50;;;;;;;25.17;66.69;99604.91;4474849;32;34007;-83
2022/06/04 08:58:57;;;;;;;3.58;1.62;;;;;;;25.28;66.30;99603.19;4464142;32;33287;-83
2022/06/04 09:01:30;;;;;;;2.08;1.27;;;;;;;25.18;65.74;99606.63;4463846;32;34249;-83
2022/06/04 09:04:05;;;;;;;3.40;1.73;;;;;;;25.32;66.22;99615.28;4469816;32;34062;-83
2022/06/04 09:06:39;;;;;;;2.05;1.27;;;;;;;25.22;64.74;99613.41;4464049;32;33961;-83
2022/06/04 09:09:14;;;;;;;2.00;1.30;;;;;;;25.35;65.26;99614.19;4464122;32;34093;-82
2022/06/04 09:11:51;;;;;;;3.12;1.67;;;;;;;25.58;63.55;99614.25;4466367;32;34563;-82
2022/06/04 09:14:35;;;;;;;3.90;1.70;;;;;;;25.47;63.49;99613.25;4479403;32;34782;-82
2022/06/04 09:17:17;;;;;;;4.62;1.50;;;;;;;25.30;64.37;99616.34;4479586;32;33785;-82
2022/06/04 09:19:57;;;;;;;2.78;1.35;;;;;;;25.28;65.22;99608.50;4480477;32;33257;-81
2022/06/04 09:22:32;;;;;;;5.35;1.85;;;;;;;25.35;64.18;99611.53;4485509;32;33728;-82
2022/06/04 09:25:03;;;;;;;4.68;2.03;;;;;;;25.24;64.07;99608.84;4464166;32;34764;-82
2022/06/04 09:27:40;;;;;;;1.83;1.20;;;;;;;25.28;64.01;99608.50;4465405;32;33889;-82
2022/06/04 09:30:21;;;;;;;3.03;1.40;;;;;;;24.90;64.14;99611.31;4471444;32;32150;-82
2022/06/04 09:33:03;;;;;;;2.70;1.60;;;;;;;25.09;64.57;99598.38;4478762;32;33670;-82
2022/06/04 09:35:37;;;;;;;2.78;1.35;;;;;;;25.10;64.44;99599.22;4463761;32;34027;-84
2022/06/04 09:38:06;;;;;;;2.37;0.98;;;;;;;25.26;61.29;99601.62;4465083;32;33746;-84
2022/06/04 09:40:36;;;;;;;2.08;1.00;;;;;;;25.08;62.21;99596.69;4469479;32;34177;-84
2022/06/04 09:43:07;;;;;;;2.45;1.02;;;;;;;25.13;63.71;99599.84;4464120;32;34567;-84
2022/06/04 09:46:00;;;;;;;1.17;0.80;;;;;;;25.16;63.19;99603.25;4463673;32;34804;-82
2022/06/04 09:48:31;;;;;;;1.50;0.88;;;;;;;25.29;62.50;99596.06;4472213;32;33588;-82
2022/06/04 09:51:03;;;;;;;1.55;1.00;;;;;;;25.14;62.64;99595.38;4479720;32;33336;-82
2022/06/04 09:53:34;;;;;;;2.35;0.85;;;;;;;25.10;62.86;99599.22;4479017;31;33824;-82
2022/06/04 09:56:07;;;;;;;3.17;0.80;;;;;;;25.34;63.27;99601.88;4484773;32;34124;-82
2022/06/04 09:58:40;;;;;;;1.15;0.70;;;;;;;25.70;61.80;99605.31;4479603;32;33354;-82
2022/06/04 10:01:22;;;;;;;1.02;0.62;;;;;;;26.05;59.10;99601.78;4479068;32;33357;-83
2022/06/04 10:04:02;;;;;;;3.40;0.80;;;;;;;25.57;59.26;99605.44;4478725;32;33394;-82
2022/06/04 10:06:38;;;;;;;1.55;0.80;;;;;;;25.66;59.26;99602.06;4463670;32;33708;-82
2022/06/04 10:12:03;;;;;;;1.10;0.60;;;;;;;25.41;58.40;99608.41;4484054;32;33899;-82
2022/06/04 10:14:35;;;;;;;3.03;0.77;;;;;;;25.44;59.27;99608.19;4477256;32;33952;-83
2022/06/04 10:17:07;;;;;;;1.40;0.77;;;;;;;25.63;57.93;99601.44;4476285;32;34762;-82
2022/06/04 10:19:36;;;;;;;0.90;0.60;;;;;;;25.73;58.83;99607.72;4478906;32;33899;-82
2022/06/04 10:22:13;;;;;;;1.37;0.80;;;;;;;25.92;58.51;99609.84;4477516;32;33381;-83
2022/06/04 10:24:50;;;;;;;0.55;0.43;;;;;;;25.87;58.77;99612.00;4478671;32;33608;-83
2022/06/04 10:27:37;;;;;;;1.48;0.57;;;;;;;26.40;58.98;99613.06;4481216;32;34057;-82
2022/06/04 10:30:16;;;;;;;1.48;1.02;;;;;;;26.32;55.21;99607.53;4475566;32;33617;-82
2022/06/04 10:33:01;;;;;;;2.65;0.60;;;;;;;26.03;57.67;99623.16;4477067;32;33056;-82
2022/06/04 10:35:45;;;;;;;1.08;0.70;;;;;;;25.98;56.56;99624.47;4475352;32;33352;-83
2022/06/04 10:38:23;;;;;;;0.98;0.70;;;;;;;25.64;56.86;99619.09;4467928;32;33555;-82
2022/06/04 10:41:03;;;;;;;1.33;0.85;;;;;;;25.84;57.69;99613.06;4478225;32;33769;-82
2022/06/04 10:44:07;;;;;;;1.50;1.10;;;;;;;26.08;55.95;99614.81;4478449;32;33950;-83
2022/06/04 10:46:44;;;;;;;1.30;1.00;;;;;;;25.96;57.04;99617.47;4478982;32;33611;-83
2022/06/04 10:49:33;;;;;;;3.22;1.65;;;;;;;25.32;59.77;99617.94;4482039;32;34000;-83
2022/06/04 10:52:23;;;;;;;1.15;0.82;;;;;;;25.34;60.30;99623.09;4484624;32;33673;-82
2022/06/04 10:55:02;;;;;;;2.37;1.30;;;;;;;25.10;60.31;99621.31;4484889;32;34105;-82
2022/06/04 10:57:34;;;;;;;0.93;0.70;;;;;;;25.16;59.78;99611.22;4479390;32;34555;-82
2022/06/04 11:00:10;;;;;;;1.65;0.98;;;;;;;25.37;60.90;99622.03;4469494;32;34838;-82
2022/06/04 11:02:44;;;;;;;2.22;1.08;;;;;;;25.50;59.32;99623.66;4462482;32;32400;-82
2022/06/04 11:05:17;;;;;;;2.28;0.88;;;;;;;25.57;60.13;99625.84;4463536;32;34111;-83
2022/06/04 11:07:53;;;;;;;2.03;1.20;;;;;;;25.38;59.80;99623.75;4466508;32;34989;-82
2022/06/04 11:10:26;;;;;;;1.23;0.70;;;;;;;26.06;56.82;99630.03;4468947;32;34441;-83
2022/06/04 11:13:08;;;;;;;1.23;0.80;;;;;;;26.03;58.02;99631.12;4463432;32;34547;-83
2022/06/04 11:15:44;;;;;;;0.88;0.62;;;;;;;26.35;54.03;99636.53;4463527;32;33933;-83
2022/06/04 11:18:16;;;;;;;1.12;0.90;;;;;;;26.03;54.70;99625.81;4462650;32;34501;-83
2022/06/04 11:20:54;;;;;;;1.45;0.85;;;;;;;25.95;54.74;99645.00;4463380;32;34462;-83
2022/06/04 11:23:32;;;;;;;1.73;0.90;;;;;;;26.39;55.05;99643.31;4463485;32;34208;-83
2022/06/04 11:26:07;;;;;;;1.87;0.82;;;;;;;26.56;52.75;99636.66;4463996;32;33377;-83
2022/06/04 11:28:37;;;;;;;1.65;0.90;;;;;;;26.40;54.15;99639.66;4468720;32;33935;-83
2022/06/04 11:31:15;;;;;;;0.90;0.80;;;;;;;26.09;54.58;99656.38;4463147;32;33093;-83
2022/06/04 11:34:05;;;;;;;1.37;1.00;;;;;;;25.77;55.96;99646.41;4463388;32;34506;-83
2022/06/04 11:36:49;;;;;;;1.27;0.80;;;;;;;26.06;55.92;99648.63;4463151;32;31749;-83
2022/06/04 11:39:28;;;;;;;0.80;0.57;;;;;;;26.34;53.74;99648.16;4463265;32;34297;-83
2022/06/04 11:42:01;;;;;;;0.82;0.60;;;;;;;26.54;52.84;99649.25;4463088;32;34099;-83
2022/06/04 11:44:57;;;;;;;2.17;1.08;;;;;;;26.23;53.22;99644.66;4465871;32;34496;-83
2022/06/04 11:47:39;;;;;;;2.70;1.33;;;;;;;26.29;53.29;99638.84;4474746;32;32465;-83
2022/06/04 11:50:14;;;;;;;0.82;0.60;;;;;;;26.20;53.67;99639.59;4484370;32;33801;-83
2022/06/04 11:52:50;;;;;;;2.05;1.02;;;;;;;26.43;53.42;99638.56;4478485;32;33857;-83
2022/06/04 11:55:26;;;;;;;1.83;1.40;;;;;;;26.89;51.97;99634.87;4478670;32;34121;-83
2022/06/04 11:58:06;;;;;;;1.17;0.73;;;;;;;27.27;50.95;99643.37;4478405;32;33425;-83
2022/06/04 12:00:38;;;;;;;1.47;0.83;;;;;;;27.36;50.93;99645.28;4478633;32;33862;-83
2022/06/04 12:03:13;;;;;;;2.58;0.85;;;;;;;27.38;49.79;99656.66;4477936;32;33233;-83
2022/06/04 12:05:50;;;;;;;2.33;1.02;;;;;;;27.58;50.36;99652.31;4483308;32;33797;-83
2022/06/04 12:08:23;;;;;;;1.23;0.80;;;;;;;27.77;49.39;99657.75;4481864;32;33983;-83
2022/06/04 12:11:21;;;;;;;1.17;0.95;;;;;;;27.42;49.75;99658.06;4475441;32;33905;-83
2022/06/04 12:14:03;;;;;;;1.50;0.82;;;;;;;27.73;50.09;99653.66;4478372;32;34007;-82
2022/06/04 12:16:38;;;;;;;1.48;0.77;;;;;;;27.66;48.55;99663.97;4477656;32;33794;-83
2022/06/04 12:25:06;;;;;;;1.48;0.90;;;;;;;27.10;51.13;99666.06;4478323;32;34018;-83